sensor_id;sensor_type;location;lat;lon;timestamp;P1;durP1;ratioP1;P2;durP2;ratioP2
84864;SDS011;75122;41.650;25.368;2024-02-28T00:01:36;12.02;;;4.22;;
84864;SDS011;75122;41.650;25.368;2024-02-28T00:04:02;8.77;;;3.72;;
84864;SDS011;75122;41.650;25.368;2024-02-28T00:06:27;7.07;;;3.30;;
84864;SDS011;75122;41.650;25.368;2024-02-28T00:08:52;9.25;;;3.88;;
84864;SDS011;75122;41.650;25.368;2024-02-28T00:11:19;6.80;;;3.67;;
84864;SDS011;75122;41.650;25.368;2024-02-28T00:13:45;8.73;;;3.95;;
84864;SDS011;75122;41.650;25.368;2024-02-28T00:16:11;7.35;;;3.28;;
84864;SDS011;75122;41.650;25.368;2024-02-28T00:18:36;6.38;;;3.78;;
84864;SDS011;75122;41.650;25.368;2024-02-28T00:21:02;11.55;;;3.10;;
84864;SDS011;75122;41.650;25.368;2024-02-28T00:23:28;7.47;;;3.88;;
84864;SDS011;75122;41.650;25.368;2024-02-28T00:25:54;8.35;;;3.58;;
84864;SDS011;75122;41.650;25.368;2024-02-28T00:28:20;6.20;;;3.70;;
84864;SDS011;75122;41.650;25.368;2024-02-28T00:30:45;5.35;;;3.20;;
84864;SDS011;75122;41.650;25.368;2024-02-28T00:33:10;6.72;;;3.92;;
84864;SDS011;75122;41.650;25.368;2024-02-28T00:35:36;7.47;;;3.63;;
84864;SDS011;75122;41.650;25.368;2024-02-28T00:38:01;6.53;;;3.38;;
84864;SDS011;75122;41.650;25.368;2024-02-28T00:40:27;7.55;;;3.38;;
84864;SDS011;75122;41.650;25.368;2024-02-28T00:42:53;6.72;;;3.97;;
84864;SDS011;75122;41.650;25.368;2024-02-28T00:45:19;6.88;;;4.15;;
84864;SDS011;75122;41.650;25.368;2024-02-28T00:47:44;8.45;;;3.42;;
84864;SDS011;75122;41.650;25.368;2024-02-28T00:50:10;9.75;;;3.55;;
84864;SDS011;75122;41.650;25.368;2024-02-28T00:52:36;7.03;;;3.15;;
84864;SDS011;75122;41.650;25.368;2024-02-28T00:55:02;6.90;;;3.50;;
84864;SDS011;75122;41.650;25.368;2024-02-28T00:57:29;7.70;;;4.18;;
84864;SDS011;75122;41.650;25.368;2024-02-28T00:59:55;8.65;;;3.72;;
84864;SDS011;75122;41.650;25.368;2024-02-28T01:02:21;8.75;;;4.15;;
84864;SDS011;75122;41.650;25.368;2024-02-28T01:04:46;9.32;;;3.70;;
84864;SDS011;75122;41.650;25.368;2024-02-28T01:07:12;8.07;;;3.95;;
84864;SDS011;75122;41.650;25.368;2024-02-28T01:09:38;10.30;;;3.80;;
84864;SDS011;75122;41.650;25.368;2024-02-28T01:12:03;8.70;;;3.97;;
84864;SDS011;75122;41.650;25.368;2024-02-28T01:14:29;8.18;;;4.10;;
84864;SDS011;75122;41.650;25.368;2024-02-28T01:16:54;10.30;;;4.10;;
84864;SDS011;75122;41.650;25.368;2024-02-28T01:19:20;6.90;;;4.05;;
84864;SDS011;75122;41.650;25.368;2024-02-28T01:21:45;9.43;;;4.07;;
84864;SDS011;75122;41.650;25.368;2024-02-28T01:24:11;5.07;;;3.60;;
84864;SDS011;75122;41.650;25.368;2024-02-28T01:26:36;7.88;;;3.63;;
84864;SDS011;75122;41.650;25.368;2024-02-28T01:29:01;6.80;;;3.80;;
84864;SDS011;75122;41.650;25.368;2024-02-28T01:31:27;8.98;;;4.32;;
84864;SDS011;75122;41.650;25.368;2024-02-28T01:33:53;5.53;;;3.47;;
84864;SDS011;75122;41.650;25.368;2024-02-28T01:36:18;11.02;;;3.72;;
84864;SDS011;75122;41.650;25.368;2024-02-28T01:38:44;9.80;;;4.05;;
84864;SDS011;75122;41.650;25.368;2024-02-28T01:41:09;11.10;;;4.10;;
84864;SDS011;75122;41.650;25.368;2024-02-28T01:43:35;6.72;;;4.10;;
84864;SDS011;75122;41.650;25.368;2024-02-28T01:46:01;9.07;;;4.47;;
84864;SDS011;75122;41.650;25.368;2024-02-28T01:48:30;11.95;;;4.88;;
84864;SDS011;75122;41.650;25.368;2024-02-28T01:50:56;10.70;;;4.53;;
84864;SDS011;75122;41.650;25.368;2024-02-28T01:53:22;7.57;;;4.38;;
84864;SDS011;75122;41.650;25.368;2024-02-28T01:55:47;8.18;;;3.92;;
84864;SDS011;75122;41.650;25.368;2024-02-28T01:58:13;7.25;;;4.22;;
84864;SDS011;75122;41.650;25.368;2024-02-28T02:00:39;9.18;;;4.00;;
84864;SDS011;75122;41.650;25.368;2024-02-28T02:03:05;7.20;;;4.32;;
84864;SDS011;75122;41.650;25.368;2024-02-28T02:05:30;9.63;;;3.97;;
84864;SDS011;75122;41.650;25.368;2024-02-28T02:07:57;7.40;;;4.40;;
84864;SDS011;75122;41.650;25.368;2024-02-28T02:10:23;11.02;;;4.63;;
84864;SDS011;75122;41.650;25.368;2024-02-28T02:12:50;10.30;;;4.00;;
84864;SDS011;75122;41.650;25.368;2024-02-28T02:15:16;9.10;;;4.95;;
84864;SDS011;75122;41.650;25.368;2024-02-28T02:17:41;7.68;;;4.43;;
84864;SDS011;75122;41.650;25.368;2024-02-28T02:20:07;10.23;;;4.55;;
84864;SDS011;75122;41.650;25.368;2024-02-28T02:22:39;7.13;;;4.30;;
84864;SDS011;75122;41.650;25.368;2024-02-28T02:25:05;9.85;;;4.00;;
84864;SDS011;75122;41.650;25.368;2024-02-28T02:27:30;8.38;;;4.05;;
84864;SDS011;75122;41.650;25.368;2024-02-28T02:29:56;8.38;;;4.53;;
84864;SDS011;75122;41.650;25.368;2024-02-28T02:32:22;8.45;;;4.13;;
84864;SDS011;75122;41.650;25.368;2024-02-28T02:34:47;11.73;;;3.97;;
84864;SDS011;75122;41.650;25.368;2024-02-28T02:37:12;5.85;;;4.28;;
84864;SDS011;75122;41.650;25.368;2024-02-28T02:39:38;10.27;;;4.60;;
84864;SDS011;75122;41.650;25.368;2024-02-28T02:42:03;6.97;;;4.00;;
84864;SDS011;75122;41.650;25.368;2024-02-28T02:44:29;8.57;;;4.07;;
84864;SDS011;75122;41.650;25.368;2024-02-28T02:46:54;6.82;;;3.67;;
84864;SDS011;75122;41.650;25.368;2024-02-28T02:49:20;10.93;;;4.50;;
84864;SDS011;75122;41.650;25.368;2024-02-28T02:51:45;8.70;;;4.43;;
84864;SDS011;75122;41.650;25.368;2024-02-28T02:54:10;10.68;;;4.18;;
84864;SDS011;75122;41.650;25.368;2024-02-28T02:56:36;12.50;;;4.70;;
84864;SDS011;75122;41.650;25.368;2024-02-28T02:59:02;9.52;;;4.50;;
84864;SDS011;75122;41.650;25.368;2024-02-28T03:01:27;9.32;;;4.20;;
84864;SDS011;75122;41.650;25.368;2024-02-28T03:03:53;8.27;;;3.78;;
84864;SDS011;75122;41.650;25.368;2024-02-28T03:06:19;10.45;;;4.72;;
84864;SDS011;75122;41.650;25.368;2024-02-28T03:08:44;8.65;;;4.20;;
84864;SDS011;75122;41.650;25.368;2024-02-28T03:11:09;20.70;;;9.77;;
84864;SDS011;75122;41.650;25.368;2024-02-28T03:13:36;13.52;;;6.82;;
84864;SDS011;75122;41.650;25.368;2024-02-28T03:16:03;12.77;;;6.25;;
84864;SDS011;75122;41.650;25.368;2024-02-28T03:18:29;10.20;;;5.93;;
84864;SDS011;75122;41.650;25.368;2024-02-28T03:20:54;12.48;;;7.78;;
84864;SDS011;75122;41.650;25.368;2024-02-28T03:23:20;14.50;;;5.93;;
84864;SDS011;75122;41.650;25.368;2024-02-28T03:25:45;9.27;;;5.38;;
84864;SDS011;75122;41.650;25.368;2024-02-28T03:28:10;8.40;;;4.72;;
84864;SDS011;75122;41.650;25.368;2024-02-28T03:30:36;11.98;;;5.57;;
84864;SDS011;75122;41.650;25.368;2024-02-28T03:33:01;9.57;;;5.70;;
84864;SDS011;75122;41.650;25.368;2024-02-28T03:35:26;10.63;;;4.70;;
84864;SDS011;75122;41.650;25.368;2024-02-28T03:37:52;10.68;;;5.43;;
84864;SDS011;75122;41.650;25.368;2024-02-28T03:40:17;13.30;;;6.43;;
84864;SDS011;75122;41.650;25.368;2024-02-28T03:42:43;10.15;;;6.30;;
84864;SDS011;75122;41.650;25.368;2024-02-28T03:45:08;15.35;;;7.47;;
84864;SDS011;75122;41.650;25.368;2024-02-28T03:47:34;10.75;;;5.70;;
84864;SDS011;75122;41.650;25.368;2024-02-28T03:49:59;10.25;;;5.38;;
84864;SDS011;75122;41.650;25.368;2024-02-28T03:52:27;10.30;;;5.05;;
84864;SDS011;75122;41.650;25.368;2024-02-28T03:54:52;8.73;;;5.00;;
84864;SDS011;75122;41.650;25.368;2024-02-28T03:57:17;12.40;;;5.80;;
84864;SDS011;75122;41.650;25.368;2024-02-28T03:59:43;9.02;;;4.50;;
84864;SDS011;75122;41.650;25.368;2024-02-28T04:02:09;10.70;;;4.65;;
84864;SDS011;75122;41.650;25.368;2024-02-28T04:04:34;9.40;;;4.60;;
84864;SDS011;75122;41.650;25.368;2024-02-28T04:07:00;12.05;;;5.75;;
84864;SDS011;75122;41.650;25.368;2024-02-28T04:09:25;13.80;;;6.57;;
84864;SDS011;75122;41.650;25.368;2024-02-28T04:11:51;13.43;;;5.70;;
84864;SDS011;75122;41.650;25.368;2024-02-28T04:14:16;11.55;;;5.97;;
84864;SDS011;75122;41.650;25.368;2024-02-28T04:16:42;12.40;;;7.25;;
84864;SDS011;75122;41.650;25.368;2024-02-28T04:19:12;16.35;;;6.00;;
84864;SDS011;75122;41.650;25.368;2024-02-28T04:21:37;11.63;;;4.60;;
84864;SDS011;75122;41.650;25.368;2024-02-28T04:24:03;13.82;;;6.10;;
84864;SDS011;75122;41.650;25.368;2024-02-28T04:26:29;9.88;;;5.43;;
84864;SDS011;75122;41.650;25.368;2024-02-28T04:28:55;12.45;;;6.38;;
84864;SDS011;75122;41.650;25.368;2024-02-28T04:31:21;11.38;;;5.88;;
84864;SDS011;75122;41.650;25.368;2024-02-28T04:33:47;13.25;;;5.80;;
84864;SDS011;75122;41.650;25.368;2024-02-28T04:36:12;12.52;;;6.75;;
84864;SDS011;75122;41.650;25.368;2024-02-28T04:38:37;10.32;;;5.68;;
84864;SDS011;75122;41.650;25.368;2024-02-28T04:41:03;15.45;;;6.30;;
84864;SDS011;75122;41.650;25.368;2024-02-28T04:43:28;12.18;;;6.30;;
84864;SDS011;75122;41.650;25.368;2024-02-28T04:45:54;10.07;;;5.88;;
84864;SDS011;75122;41.650;25.368;2024-02-28T04:48:19;17.90;;;6.15;;
84864;SDS011;75122;41.650;25.368;2024-02-28T04:50:44;15.50;;;5.28;;
84864;SDS011;75122;41.650;25.368;2024-02-28T04:53:10;18.67;;;5.22;;
84864;SDS011;75122;41.650;25.368;2024-02-28T04:55:35;8.93;;;4.55;;
84864;SDS011;75122;41.650;25.368;2024-02-28T04:58:01;16.15;;;5.30;;
84864;SDS011;75122;41.650;25.368;2024-02-28T05:00:27;8.57;;;5.22;;
84864;SDS011;75122;41.650;25.368;2024-02-28T05:02:52;10.73;;;5.75;;
84864;SDS011;75122;41.650;25.368;2024-02-28T05:05:17;13.20;;;5.80;;
84864;SDS011;75122;41.650;25.368;2024-02-28T05:07:43;10.27;;;5.60;;
84864;SDS011;75122;41.650;25.368;2024-02-28T05:10:08;14.23;;;6.18;;
84864;SDS011;75122;41.650;25.368;2024-02-28T05:12:34;17.70;;;7.22;;
84864;SDS011;75122;41.650;25.368;2024-02-28T05:14:59;12.80;;;5.88;;
84864;SDS011;75122;41.650;25.368;2024-02-28T05:17:25;15.30;;;7.80;;
84864;SDS011;75122;41.650;25.368;2024-02-28T05:19:50;13.88;;;6.88;;
84864;SDS011;75122;41.650;25.368;2024-02-28T05:22:16;13.07;;;6.53;;
84864;SDS011;75122;41.650;25.368;2024-02-28T05:24:41;13.20;;;6.80;;
84864;SDS011;75122;41.650;25.368;2024-02-28T05:27:08;12.18;;;6.72;;
84864;SDS011;75122;41.650;25.368;2024-02-28T05:29:34;19.30;;;8.98;;
84864;SDS011;75122;41.650;25.368;2024-02-28T05:31:59;14.38;;;8.95;;
84864;SDS011;75122;41.650;25.368;2024-02-28T05:34:25;27.35;;;13.00;;
84864;SDS011;75122;41.650;25.368;2024-02-28T05:36:50;20.20;;;11.07;;
84864;SDS011;75122;41.650;25.368;2024-02-28T05:39:16;16.70;;;8.15;;
84864;SDS011;75122;41.650;25.368;2024-02-28T05:41:41;16.23;;;7.75;;
84864;SDS011;75122;41.650;25.368;2024-02-28T05:44:06;21.65;;;9.65;;
84864;SDS011;75122;41.650;25.368;2024-02-28T05:46:32;23.58;;;9.35;;
84864;SDS011;75122;41.650;25.368;2024-02-28T05:48:57;50.85;;;19.00;;
84864;SDS011;75122;41.650;25.368;2024-02-28T05:51:23;14.88;;;7.88;;
84864;SDS011;75122;41.650;25.368;2024-02-28T05:53:48;15.57;;;7.93;;
84864;SDS011;75122;41.650;25.368;2024-02-28T05:56:14;22.02;;;7.90;;
84864;SDS011;75122;41.650;25.368;2024-02-28T05:58:40;14.35;;;7.32;;
84864;SDS011;75122;41.650;25.368;2024-02-28T06:01:06;17.05;;;7.45;;
84864;SDS011;75122;41.650;25.368;2024-02-28T06:03:32;17.80;;;6.85;;
84864;SDS011;75122;41.650;25.368;2024-02-28T06:05:58;14.10;;;6.47;;
84864;SDS011;75122;41.650;25.368;2024-02-28T06:08:23;15.70;;;7.28;;
84864;SDS011;75122;41.650;25.368;2024-02-28T06:10:49;14.15;;;7.32;;
84864;SDS011;75122;41.650;25.368;2024-02-28T06:13:14;17.20;;;8.02;;
84864;SDS011;75122;41.650;25.368;2024-02-28T06:15:39;14.13;;;7.32;;
84864;SDS011;75122;41.650;25.368;2024-02-28T06:18:05;16.60;;;7.75;;
84864;SDS011;75122;41.650;25.368;2024-02-28T06:20:30;17.75;;;8.25;;
84864;SDS011;75122;41.650;25.368;2024-02-28T06:22:56;15.27;;;8.00;;
84864;SDS011;75122;41.650;25.368;2024-02-28T06:25:21;16.10;;;7.32;;
84864;SDS011;75122;41.650;25.368;2024-02-28T06:27:48;16.85;;;7.47;;
84864;SDS011;75122;41.650;25.368;2024-02-28T06:30:14;17.35;;;7.57;;
84864;SDS011;75122;41.650;25.368;2024-02-28T06:32:41;13.65;;;7.30;;
84864;SDS011;75122;41.650;25.368;2024-02-28T06:35:07;15.90;;;7.45;;
84864;SDS011;75122;41.650;25.368;2024-02-28T06:37:34;19.67;;;6.60;;
84864;SDS011;75122;41.650;25.368;2024-02-28T06:40:00;18.67;;;7.80;;
84864;SDS011;75122;41.650;25.368;2024-02-28T06:42:25;15.70;;;7.55;;
84864;SDS011;75122;41.650;25.368;2024-02-28T06:44:51;13.32;;;6.80;;
84864;SDS011;75122;41.650;25.368;2024-02-28T06:47:16;29.20;;;7.30;;
84864;SDS011;75122;41.650;25.368;2024-02-28T06:49:43;18.23;;;7.07;;
84864;SDS011;75122;41.650;25.368;2024-02-28T06:52:08;22.38;;;7.88;;
84864;SDS011;75122;41.650;25.368;2024-02-28T06:54:34;10.85;;;6.15;;
84864;SDS011;75122;41.650;25.368;2024-02-28T06:56:59;14.45;;;7.03;;
84864;SDS011;75122;41.650;25.368;2024-02-28T06:59:25;16.75;;;6.43;;
84864;SDS011;75122;41.650;25.368;2024-02-28T07:01:50;20.58;;;8.45;;
84864;SDS011;75122;41.650;25.368;2024-02-28T07:04:15;20.48;;;9.73;;
84864;SDS011;75122;41.650;25.368;2024-02-28T07:06:41;18.73;;;10.20;;
84864;SDS011;75122;41.650;25.368;2024-02-28T07:09:07;20.88;;;9.20;;
84864;SDS011;75122;41.650;25.368;2024-02-28T07:11:33;21.35;;;10.07;;
84864;SDS011;75122;41.650;25.368;2024-02-28T07:13:59;20.30;;;9.63;;
84864;SDS011;75122;41.650;25.368;2024-02-28T07:16:27;20.17;;;9.68;;
84864;SDS011;75122;41.650;25.368;2024-02-28T07:18:53;18.65;;;9.32;;
84864;SDS011;75122;41.650;25.368;2024-02-28T07:21:18;24.92;;;10.35;;
84864;SDS011;75122;41.650;25.368;2024-02-28T07:23:44;21.38;;;9.80;;
84864;SDS011;75122;41.650;25.368;2024-02-28T07:26:14;17.77;;;8.68;;
84864;SDS011;75122;41.650;25.368;2024-02-28T07:28:40;25.25;;;10.43;;
84864;SDS011;75122;41.650;25.368;2024-02-28T07:31:05;28.20;;;12.80;;
84864;SDS011;75122;41.650;25.368;2024-02-28T07:33:31;21.50;;;10.38;;
84864;SDS011;75122;41.650;25.368;2024-02-28T07:35:56;19.55;;;9.13;;
84864;SDS011;75122;41.650;25.368;2024-02-28T07:38:26;17.50;;;8.35;;
84864;SDS011;75122;41.650;25.368;2024-02-28T07:40:52;19.73;;;9.35;;
84864;SDS011;75122;41.650;25.368;2024-02-28T07:43:18;17.85;;;8.43;;
84864;SDS011;75122;41.650;25.368;2024-02-28T07:45:43;21.88;;;8.30;;
84864;SDS011;75122;41.650;25.368;2024-02-28T07:48:09;16.55;;;8.93;;
84864;SDS011;75122;41.650;25.368;2024-02-28T07:50:34;14.88;;;7.70;;
84864;SDS011;75122;41.650;25.368;2024-02-28T07:52:59;21.30;;;7.68;;
84864;SDS011;75122;41.650;25.368;2024-02-28T07:55:25;15.77;;;7.47;;
84864;SDS011;75122;41.650;25.368;2024-02-28T07:57:51;15.43;;;7.88;;
84864;SDS011;75122;41.650;25.368;2024-02-28T08:00:17;16.48;;;6.97;;
84864;SDS011;75122;41.650;25.368;2024-02-28T08:02:44;11.70;;;7.05;;
84864;SDS011;75122;41.650;25.368;2024-02-28T08:05:09;16.30;;;6.75;;
84864;SDS011;75122;41.650;25.368;2024-02-28T08:07:35;15.07;;;7.68;;
84864;SDS011;75122;41.650;25.368;2024-02-28T08:10:00;17.13;;;7.75;;
84864;SDS011;75122;41.650;25.368;2024-02-28T08:12:27;16.10;;;6.90;;
84864;SDS011;75122;41.650;25.368;2024-02-28T08:14:52;11.13;;;6.72;;
84864;SDS011;75122;41.650;25.368;2024-02-28T08:17:18;13.93;;;7.20;;
84864;SDS011;75122;41.650;25.368;2024-02-28T08:19:43;12.95;;;6.82;;
84864;SDS011;75122;41.650;25.368;2024-02-28T08:22:08;13.80;;;6.00;;
84864;SDS011;75122;41.650;25.368;2024-02-28T08:24:35;13.70;;;6.40;;
84864;SDS011;75122;41.650;25.368;2024-02-28T08:27:01;11.93;;;6.78;;
84864;SDS011;75122;41.650;25.368;2024-02-28T08:29:27;12.10;;;6.30;;
84864;SDS011;75122;41.650;25.368;2024-02-28T08:31:52;16.50;;;6.65;;
84864;SDS011;75122;41.650;25.368;2024-02-28T08:34:17;14.25;;;6.57;;
84864;SDS011;75122;41.650;25.368;2024-02-28T08:36:43;19.35;;;6.82;;
84864;SDS011;75122;41.650;25.368;2024-02-28T08:39:08;11.85;;;6.70;;
84864;SDS011;75122;41.650;25.368;2024-02-28T08:41:34;14.57;;;6.38;;
84864;SDS011;75122;41.650;25.368;2024-02-28T08:44:00;15.35;;;6.68;;
84864;SDS011;75122;41.650;25.368;2024-02-28T08:46:25;10.77;;;6.28;;
84864;SDS011;75122;41.650;25.368;2024-02-28T08:48:51;11.85;;;6.60;;
84864;SDS011;75122;41.650;25.368;2024-02-28T08:51:16;9.68;;;5.68;;
84864;SDS011;75122;41.650;25.368;2024-02-28T08:53:41;19.98;;;7.65;;
84864;SDS011;75122;41.650;25.368;2024-02-28T08:56:07;10.27;;;5.20;;
84864;SDS011;75122;41.650;25.368;2024-02-28T08:58:32;13.73;;;5.22;;
84864;SDS011;75122;41.650;25.368;2024-02-28T09:00:57;9.48;;;5.38;;
84864;SDS011;75122;41.650;25.368;2024-02-28T09:03:23;10.80;;;6.38;;
84864;SDS011;75122;41.650;25.368;2024-02-28T09:05:48;14.00;;;6.30;;
84864;SDS011;75122;41.650;25.368;2024-02-28T09:08:14;15.55;;;6.45;;
84864;SDS011;75122;41.650;25.368;2024-02-28T09:10:39;16.77;;;6.25;;
84864;SDS011;75122;41.650;25.368;2024-02-28T09:13:05;14.45;;;6.30;;
84864;SDS011;75122;41.650;25.368;2024-02-28T09:15:31;15.45;;;5.60;;
84864;SDS011;75122;41.650;25.368;2024-02-28T09:17:57;20.50;;;6.63;;
84864;SDS011;75122;41.650;25.368;2024-02-28T09:20:22;11.98;;;5.65;;
84864;SDS011;75122;41.650;25.368;2024-02-28T09:22:48;10.80;;;5.10;;
84864;SDS011;75122;41.650;25.368;2024-02-28T09:25:13;17.00;;;6.22;;
84864;SDS011;75122;41.650;25.368;2024-02-28T09:27:40;9.88;;;4.63;;
84864;SDS011;75122;41.650;25.368;2024-02-28T09:30:06;11.93;;;6.57;;
84864;SDS011;75122;41.650;25.368;2024-02-28T09:32:32;10.38;;;5.40;;
84864;SDS011;75122;41.650;25.368;2024-02-28T09:34:57;13.82;;;6.15;;
84864;SDS011;75122;41.650;25.368;2024-02-28T09:37:23;12.02;;;5.85;;
84864;SDS011;75122;41.650;25.368;2024-02-28T09:39:50;12.10;;;6.57;;
84864;SDS011;75122;41.650;25.368;2024-02-28T09:42:15;10.30;;;4.50;;
84864;SDS011;75122;41.650;25.368;2024-02-28T09:44:41;10.63;;;3.83;;
84864;SDS011;75122;41.650;25.368;2024-02-28T09:47:08;11.48;;;4.30;;
84864;SDS011;75122;41.650;25.368;2024-02-28T09:49:33;9.10;;;3.97;;
84864;SDS011;75122;41.650;25.368;2024-02-28T09:52:02;8.82;;;4.35;;
84864;SDS011;75122;41.650;25.368;2024-02-28T09:54:28;11.68;;;4.30;;
84864;SDS011;75122;41.650;25.368;2024-02-28T09:56:54;10.40;;;3.75;;
84864;SDS011;75122;41.650;25.368;2024-02-28T09:59:20;9.55;;;3.35;;
84864;SDS011;75122;41.650;25.368;2024-02-28T10:01:48;9.15;;;4.00;;
84864;SDS011;75122;41.650;25.368;2024-02-28T10:04:20;6.68;;;4.10;;
84864;SDS011;75122;41.650;25.368;2024-02-28T10:06:46;11.02;;;4.85;;
84864;SDS011;75122;41.650;25.368;2024-02-28T10:09:14;10.10;;;4.72;;
84864;SDS011;75122;41.650;25.368;2024-02-28T10:11:41;11.85;;;4.13;;
84864;SDS011;75122;41.650;25.368;2024-02-28T10:14:08;16.10;;;5.63;;
84864;SDS011;75122;41.650;25.368;2024-02-28T10:16:34;10.80;;;4.03;;
84864;SDS011;75122;41.650;25.368;2024-02-28T10:18:59;12.35;;;4.88;;
84864;SDS011;75122;41.650;25.368;2024-02-28T10:21:25;10.35;;;4.47;;
84864;SDS011;75122;41.650;25.368;2024-02-28T10:23:51;9.10;;;3.78;;
84864;SDS011;75122;41.650;25.368;2024-02-28T10:26:16;8.93;;;3.38;;
84864;SDS011;75122;41.650;25.368;2024-02-28T10:28:42;6.55;;;2.90;;
84864;SDS011;75122;41.650;25.368;2024-02-28T10:31:09;8.57;;;3.45;;
84864;SDS011;75122;41.650;25.368;2024-02-28T10:33:35;10.10;;;3.22;;
84864;SDS011;75122;41.650;25.368;2024-02-28T10:36:02;11.38;;;3.53;;
84864;SDS011;75122;41.650;25.368;2024-02-28T10:38:30;7.05;;;3.00;;
84864;SDS011;75122;41.650;25.368;2024-02-28T10:40:56;7.55;;;3.40;;
84864;SDS011;75122;41.650;25.368;2024-02-28T10:43:22;11.05;;;3.72;;
84864;SDS011;75122;41.650;25.368;2024-02-28T10:45:50;11.55;;;3.58;;
84864;SDS011;75122;41.650;25.368;2024-02-28T10:48:16;11.10;;;3.05;;
84864;SDS011;75122;41.650;25.368;2024-02-28T10:50:43;5.32;;;2.75;;
84864;SDS011;75122;41.650;25.368;2024-02-28T10:53:13;5.95;;;2.90;;
84864;SDS011;75122;41.650;25.368;2024-02-28T10:55:41;7.45;;;2.97;;
84864;SDS011;75122;41.650;25.368;2024-02-28T10:58:07;6.00;;;2.42;;
84864;SDS011;75122;41.650;25.368;2024-02-28T11:00:35;8.55;;;2.85;;
84864;SDS011;75122;41.650;25.368;2024-02-28T11:03:03;5.70;;;2.78;;
84864;SDS011;75122;41.650;25.368;2024-02-28T11:05:39;4.38;;;2.40;;
84864;SDS011;75122;41.650;25.368;2024-02-28T11:08:08;7.65;;;3.63;;
84864;SDS011;75122;41.650;25.368;2024-02-28T11:10:40;6.05;;;2.72;;
84864;SDS011;75122;41.650;25.368;2024-02-28T11:13:20;9.02;;;2.75;;
84864;SDS011;75122;41.650;25.368;2024-02-28T11:15:47;6.18;;;2.80;;
84864;SDS011;75122;41.650;25.368;2024-02-28T11:18:12;8.95;;;2.83;;
84864;SDS011;75122;41.650;25.368;2024-02-28T11:20:38;4.72;;;2.60;;
84864;SDS011;75122;41.650;25.368;2024-02-28T11:23:05;6.32;;;2.65;;
84864;SDS011;75122;41.650;25.368;2024-02-28T11:25:31;5.53;;;2.58;;
84864;SDS011;75122;41.650;25.368;2024-02-28T11:27:57;6.75;;;2.63;;
84864;SDS011;75122;41.650;25.368;2024-02-28T11:30:22;6.78;;;2.85;;
84864;SDS011;75122;41.650;25.368;2024-02-28T11:32:51;5.05;;;2.75;;
84864;SDS011;75122;41.650;25.368;2024-02-28T11:35:18;3.65;;;2.28;;
84864;SDS011;75122;41.650;25.368;2024-02-28T11:37:45;6.32;;;2.88;;
84864;SDS011;75122;41.650;25.368;2024-02-28T11:40:14;5.68;;;2.97;;
84864;SDS011;75122;41.650;25.368;2024-02-28T11:42:39;9.15;;;3.33;;
84864;SDS011;75122;41.650;25.368;2024-02-28T11:45:05;8.68;;;2.70;;
84864;SDS011;75122;41.650;25.368;2024-02-28T11:47:37;7.50;;;3.40;;
84864;SDS011;75122;41.650;25.368;2024-02-28T11:50:03;5.70;;;2.90;;
84864;SDS011;75122;41.650;25.368;2024-02-28T11:52:30;6.50;;;3.08;;
84864;SDS011;75122;41.650;25.368;2024-02-28T11:54:56;4.15;;;2.45;;
84864;SDS011;75122;41.650;25.368;2024-02-28T11:57:21;7.18;;;3.20;;
84864;SDS011;75122;41.650;25.368;2024-02-28T11:59:47;7.93;;;2.97;;
84864;SDS011;75122;41.650;25.368;2024-02-28T12:02:13;6.53;;;3.83;;
84864;SDS011;75122;41.650;25.368;2024-02-28T12:04:41;5.30;;;2.97;;
84864;SDS011;75122;41.650;25.368;2024-02-28T12:07:10;6.03;;;2.80;;
84864;SDS011;75122;41.650;25.368;2024-02-28T12:09:36;11.52;;;3.00;;
84864;SDS011;75122;41.650;25.368;2024-02-28T12:12:03;7.75;;;2.80;;
84864;SDS011;75122;41.650;25.368;2024-02-28T12:14:36;8.07;;;3.03;;
84864;SDS011;75122;41.650;25.368;2024-02-28T12:17:02;6.57;;;4.05;;
84864;SDS011;75122;41.650;25.368;2024-02-28T12:19:28;6.05;;;3.20;;
84864;SDS011;75122;41.650;25.368;2024-02-28T12:21:53;6.72;;;2.88;;
84864;SDS011;75122;41.650;25.368;2024-02-28T12:24:19;4.90;;;2.72;;
84864;SDS011;75122;41.650;25.368;2024-02-28T12:26:45;4.05;;;2.95;;
84864;SDS011;75122;41.650;25.368;2024-02-28T12:29:11;8.55;;;3.63;;
84864;SDS011;75122;41.650;25.368;2024-02-28T12:31:36;6.55;;;2.97;;
84864;SDS011;75122;41.650;25.368;2024-02-28T12:34:02;5.50;;;2.60;;
84864;SDS011;75122;41.650;25.368;2024-02-28T12:36:29;5.45;;;2.90;;
84864;SDS011;75122;41.650;25.368;2024-02-28T12:38:56;3.85;;;2.70;;
84864;SDS011;75122;41.650;25.368;2024-02-28T12:41:22;5.82;;;2.47;;
84864;SDS011;75122;41.650;25.368;2024-02-28T12:43:47;7.75;;;2.90;;
84864;SDS011;75122;41.650;25.368;2024-02-28T12:46:13;4.45;;;2.50;;
84864;SDS011;75122;41.650;25.368;2024-02-28T12:48:39;4.38;;;2.83;;
84864;SDS011;75122;41.650;25.368;2024-02-28T12:51:05;6.97;;;2.83;;
84864;SDS011;75122;41.650;25.368;2024-02-28T12:53:31;6.30;;;2.97;;
84864;SDS011;75122;41.650;25.368;2024-02-28T12:55:57;17.17;;;8.43;;
84864;SDS011;75122;41.650;25.368;2024-02-28T12:58:22;4.78;;;2.63;;
84864;SDS011;75122;41.650;25.368;2024-02-28T13:00:49;5.65;;;2.15;;
84864;SDS011;75122;41.650;25.368;2024-02-28T13:03:14;7.07;;;2.38;;
84864;SDS011;75122;41.650;25.368;2024-02-28T13:05:41;7.60;;;3.22;;
84864;SDS011;75122;41.650;25.368;2024-02-28T13:08:06;5.03;;;2.80;;
84864;SDS011;75122;41.650;25.368;2024-02-28T13:10:32;7.30;;;3.08;;
84864;SDS011;75122;41.650;25.368;2024-02-28T13:13:01;6.32;;;3.00;;
84864;SDS011;75122;41.650;25.368;2024-02-28T13:15:28;8.77;;;3.30;;
84864;SDS011;75122;41.650;25.368;2024-02-28T13:17:53;9.10;;;3.33;;
84864;SDS011;75122;41.650;25.368;2024-02-28T13:20:19;4.78;;;3.08;;
84864;SDS011;75122;41.650;25.368;2024-02-28T13:22:44;5.90;;;3.60;;
84864;SDS011;75122;41.650;25.368;2024-02-28T13:25:11;12.13;;;4.78;;
84864;SDS011;75122;41.650;25.368;2024-02-28T13:27:36;10.10;;;4.55;;
84864;SDS011;75122;41.650;25.368;2024-02-28T13:30:05;8.55;;;2.83;;
84864;SDS011;75122;41.650;25.368;2024-02-28T13:32:31;9.10;;;3.25;;
84864;SDS011;75122;41.650;25.368;2024-02-28T13:34:57;5.45;;;4.00;;
84864;SDS011;75122;41.650;25.368;2024-02-28T13:37:22;10.13;;;4.22;;
84864;SDS011;75122;41.650;25.368;2024-02-28T13:39:48;9.70;;;4.47;;
84864;SDS011;75122;41.650;25.368;2024-02-28T13:42:16;8.05;;;3.80;;
84864;SDS011;75122;41.650;25.368;2024-02-28T13:44:41;5.88;;;2.92;;
84864;SDS011;75122;41.650;25.368;2024-02-28T13:47:08;5.85;;;2.88;;
84864;SDS011;75122;41.650;25.368;2024-02-28T13:49:33;5.85;;;2.85;;
84864;SDS011;75122;41.650;25.368;2024-02-28T13:51:58;8.68;;;3.30;;
84864;SDS011;75122;41.650;25.368;2024-02-28T13:54:24;7.50;;;2.97;;
84864;SDS011;75122;41.650;25.368;2024-02-28T13:56:49;9.43;;;3.15;;
84864;SDS011;75122;41.650;25.368;2024-02-28T13:59:15;8.13;;;3.03;;
84864;SDS011;75122;41.650;25.368;2024-02-28T14:01:40;5.68;;;3.00;;
84864;SDS011;75122;41.650;25.368;2024-02-28T14:04:06;7.63;;;3.00;;
84864;SDS011;75122;41.650;25.368;2024-02-28T14:06:32;7.80;;;3.92;;
84864;SDS011;75122;41.650;25.368;2024-02-28T14:08:57;10.02;;;3.50;;
84864;SDS011;75122;41.650;25.368;2024-02-28T14:11:23;6.47;;;3.55;;
84864;SDS011;75122;41.650;25.368;2024-02-28T14:13:49;5.13;;;3.05;;
84864;SDS011;75122;41.650;25.368;2024-02-28T14:16:14;7.82;;;3.35;;
84864;SDS011;75122;41.650;25.368;2024-02-28T14:18:40;8.80;;;3.25;;
84864;SDS011;75122;41.650;25.368;2024-02-28T14:21:05;6.47;;;3.60;;